Time;durP1;ratioP1;P1;durP2;ratioP2;P2;SDS_P1;SDS_P2;PMS_P1;PMS_P2;Temp;Humidity;BMP_temperature;BMP_pressure;BME280_temperature;BME280_humidity;BME280_pressure;Samples;Min_cycle;Max_cycle;Signal;HPM_P1;HPM_P2
2022/11/21 00:01:53;;;;;;;2.17;0.40;;;8.00;99.90;;;;;;5031524;28;20549;-82
2022/11/21 00:04:19;;;;;;;0.13;0.13;;;7.90;99.90;;;;;;5053491;28;20111;-82
2022/11/21 00:06:44;;;;;;;1.58;1.38;;;8.00;99.90;;;;;;5031354;28;20040;-81
2022/11/21 00:09:10;;;;;;;0.10;0.10;;;7.90;99.90;;;;;;5049085;28;20036;-82
2022/11/21 00:11:36;;;;;;;0.40;0.40;;;7.90;99.90;;;;;;5054586;28;20799;-81
2022/11/21 00:14:01;;;;;;;0.43;0.43;;;8.10;99.90;;;;;;5048554;28;20052;-81
2022/11/21 00:16:27;;;;;;;0.17;0.17;;;8.10;99.90;;;;;;5048853;28;20109;-81
2022/11/21 00:18:53;;;;;;;0.10;0.10;;;8.10;99.90;;;;;;5049420;28;20770;-82
2022/11/21 00:21:19;;;;;;;0.20;0.20;;;8.10;99.90;;;;;;5048607;28;20078;-82
2022/11/21 00:23:46;;;;;;;0.10;0.10;;;8.10;99.90;;;;;;5048893;28;20033;-82
2022/11/21 00:26:14;;;;;;;0.57;0.57;;;8.00;99.90;;;;;;5049995;28;20090;-82
2022/11/21 00:28:40;;;;;;;0.20;0.20;;;7.80;99.90;;;;;;5048887;28;20112;-83
2022/11/21 00:31:06;;;;;;;0.30;0.30;;;7.80;99.90;;;;;;5052430;28;20033;-83
2022/11/21 00:33:35;;;;;;;0.20;0.20;;;7.70;99.90;;;;;;5051833;28;20028;-85
2022/11/21 00:36:10;;;;;;;0.82;0.63;;;7.70;99.90;;;;;;5014406;28;20040;-85
2022/11/21 00:38:36;;;;;;;0.50;0.50;;;7.50;99.90;;;;;;5049065;28;20029;-85
2022/11/21 00:41:02;;;;;;;1.17;0.83;;;7.50;99.90;;;;;;5030255;28;20035;-85
2022/11/21 00:43:28;;;;;;;0.20;0.20;;;7.50;99.90;;;;;;5035021;28;20270;-84
2022/11/21 00:45:53;;;;;;;0.20;0.20;;;7.40;99.90;;;;;;5050875;28;20029;-83
2022/11/21 00:48:19;;;;;;;0.45;0.45;;;7.50;99.90;;;;;;5054337;28;20990;-84
2022/11/21 00:50:48;;;;;;;0.57;0.57;;;7.40;99.90;;;;;;5030071;28;20029;-82
2022/11/21 00:53:14;;;;;;;0.05;0.05;;;7.40;99.90;;;;;;5033655;28;20908;-81
2022/11/21 00:55:41;;;;;;;0.10;0.10;;;7.40;99.90;;;;;;5047197;28;20049;-81
2022/11/21 00:58:06;;;;;;;;;;;7.40;99.90;;;;;;5047865;28;20033;-81
2022/11/21 01:00:32;;;;;;;0.43;0.43;;;7.40;99.90;;;;;;5029960;28;19943;-80
2022/11/21 01:02:58;;;;;;;0.38;0.35;;;7.40;99.90;;;;;;5044452;28;20840;-80
2022/11/21 01:05:23;;;;;;;5.38;1.85;;;7.40;99.90;;;;;;5030151;28;20575;-81
2022/11/21 01:07:49;;;;;;;0.20;0.20;;;7.40;99.90;;;;;;5047663;28;20504;-80
2022/11/21 01:10:15;;;;;;;0.20;0.20;;;7.40;99.90;;;;;;5049007;28;20863;-81
2022/11/21 01:12:40;;;;;;;0.15;0.15;;;7.30;99.90;;;;;;5048148;28;20059;-80
2022/11/21 01:15:07;;;;;;;0.20;0.20;;;7.40;99.90;;;;;;5047946;28;20454;-80
2022/11/21 01:17:32;;;;;;;0.20;0.20;;;7.40;99.90;;;;;;5049563;28;20029;-80
2022/11/21 01:19:58;;;;;;;0.40;0.40;;;7.30;99.90;;;;;;5047845;28;20577;-80
2022/11/21 01:22:24;;;;;;;0.30;0.30;;;7.30;99.90;;;;;;5033675;28;20087;-80
2022/11/21 01:24:49;;;;;;;1.75;0.98;;;7.20;99.90;;;;;;5029818;28;20032;-82
2022/11/21 01:27:15;;;;;;;0.30;0.30;;;7.10;99.90;;;;;;5047530;28;20029;-82
2022/11/21 01:29:41;;;;;;;0.22;0.22;;;7.20;99.90;;;;;;5046590;28;20863;-82
2022/11/21 01:32:07;;;;;;;0.73;0.73;;;7.20;99.90;;;;;;5031684;28;20033;-82
2022/11/21 01:34:32;;;;;;;0.20;0.20;;;7.20;99.90;;;;;;5048666;28;20021;-82
2022/11/21 01:36:58;;;;;;;0.17;0.17;;;7.20;99.90;;;;;;5047745;28;20058;-80
2022/11/21 01:39:24;;;;;;;0.20;0.20;;;7.10;99.90;;;;;;5046901;28;20029;-82
2022/11/21 01:41:49;;;;;;;0.10;0.10;;;7.20;99.90;;;;;;5052218;28;20040;-82
2022/11/21 01:44:22;;;;;;;0.20;0.20;;;7.10;99.90;;;;;;5052404;28;20029;-81
2022/11/21 01:46:49;;;;;;;0.45;0.45;;;7.00;99.90;;;;;;5046631;28;20041;-82
2022/11/21 01:49:17;;;;;;;;;;;7.10;99.90;;;;;;5048780;28;20091;-81
2022/11/21 01:52:03;;;;;;;0.25;0.25;;;7.00;99.90;;;;;;5029033;28;19960;-82
2022/11/21 01:54:32;;;;;;;0.10;0.10;;;6.90;99.90;;;;;;5050317;28;20479;-81
2022/11/21 01:57:00;;;;;;;0.60;0.60;;;6.90;99.90;;;;;;5035113;28;20110;-81
2022/11/21 01:59:48;;;;;;;0.20;0.20;;;6.90;99.90;;;;;;5050335;28;20111;-81
2022/11/21 02:02:19;;;;;;;0.10;0.10;;;7.00;99.90;;;;;;5024625;28;20132;-81
2022/11/21 02:04:47;;;;;;;0.63;0.32;;;6.90;99.90;;;;;;5026563;28;20033;-83
2022/11/21 02:07:14;;;;;;;0.10;0.10;;;6.90;99.90;;;;;;5049637;28;20035;-82
2022/11/21 02:09:43;;;;;;;0.68;0.68;;;6.90;99.90;;;;;;5053419;28;20021;-82
2022/11/21 02:12:21;;;;;;;0.50;0.32;;;6.90;99.90;;;;;;5047355;28;20074;-82
2022/11/21 02:14:47;;;;;;;0.38;0.38;;;6.90;99.90;;;;;;5044298;28;20029;-82
2022/11/21 02:17:13;;;;;;;0.38;0.38;;;6.90;99.90;;;;;;5047042;28;20028;-82
2022/11/21 02:19:53;;;;;;;0.90;0.90;;;6.90;99.90;;;;;;5051545;28;20036;-83
2022/11/21 02:22:18;;;;;;;0.63;0.63;;;6.80;99.90;;;;;;5027940;28;20044;-81
2022/11/21 02:25:07;;;;;;;0.82;0.82;;;6.80;99.90;;;;;;5053269;28;20037;-81
2022/11/21 02:27:33;;;;;;;4.00;1.23;;;6.80;99.90;;;;;;5033424;28;20047;-81
2022/11/21 02:30:00;;;;;;;0.20;0.20;;;6.70;99.90;;;;;;5051662;28;20025;-80
2022/11/21 02:32:35;;;;;;;0.10;0.10;;;6.70;99.90;;;;;;5057074;28;20017;-80
2022/11/21 02:35:01;;;;;;;0.22;0.22;;;6.70;99.90;;;;;;5033418;28;20025;-80
2022/11/21 02:37:27;;;;;;;0.52;0.52;;;6.60;99.90;;;;;;5051141;28;20029;-81
2022/11/21 02:39:54;;;;;;;0.30;0.30;;;6.60;99.90;;;;;;5051332;28;20028;-81
2022/11/21 02:42:27;;;;;;;0.40;0.40;;;6.50;99.90;;;;;;5043285;28;20481;-81
2022/11/21 02:45:17;;;;;;;2.20;1.55;;;6.40;99.90;;;;;;5051021;28;20025;-82
2022/11/21 02:47:45;;;;;;;0.10;0.10;;;6.40;99.90;;;;;;5033742;28;20041;-81
2022/11/21 02:50:26;;;;;;;1.23;1.13;;;6.40;99.90;;;;;;5050584;28;20110;-82
2022/11/21 02:52:52;;;;;;;0.28;0.20;;;6.40;99.90;;;;;;5050426;28;20133;-81
2022/11/21 02:55:18;;;;;;;0.38;0.38;;;6.30;99.90;;;;;;5050527;28;20073;-80
2022/11/21 02:57:43;;;;;;;0.47;0.47;;;6.30;99.90;;;;;;5048820;28;20032;-78
2022/11/21 03:00:10;;;;;;;0.63;0.63;;;6.30;99.90;;;;;;5051763;28;20567;-78
2022/11/21 03:02:36;;;;;;;3.05;0.80;;;6.40;99.90;;;;;;5050961;28;20070;-80
2022/11/21 03:05:03;;;;;;;0.10;0.10;;;6.50;99.90;;;;;;5050131;28;20849;-79
2022/11/21 03:07:28;;;;;;;0.75;0.75;;;6.40;99.90;;;;;;5052632;28;20287;-80
2022/11/21 03:09:54;;;;;;;0.95;0.65;;;6.40;99.90;;;;;;5051384;28;20032;-78
2022/11/21 03:12:20;;;;;;;0.47;0.47;;;6.40;99.90;;;;;;5050825;28;20661;-80
2022/11/21 03:14:45;;;;;;;1.35;0.35;;;6.60;99.90;;;;;;5050006;28;20520;-80
2022/11/21 03:17:11;;;;;;;0.63;0.63;;;6.60;99.90;;;;;;5045793;28;20029;-80
2022/11/21 03:19:37;;;;;;;0.93;0.80;;;6.70;99.90;;;;;;5049797;28;20035;-80
2022/11/21 03:22:03;;;;;;;0.25;0.25;;;6.70;99.90;;;;;;5049457;28;20042;-80
2022/11/21 03:24:28;;;;;;;0.15;0.15;;;6.70;99.90;;;;;;5049505;28;20131;-80
2022/11/21 03:26:54;;;;;;;0.10;0.10;;;6.70;99.90;;;;;;5049547;28;20603;-81
2022/11/21 03:29:20;;;;;;;0.10;0.10;;;6.70;99.90;;;;;;5051713;28;20061;-82
2022/11/21 03:31:45;;;;;;;1.27;0.88;;;6.80;99.90;;;;;;5048759;28;20050;-80
2022/11/21 03:34:11;;;;;;;1.15;1.05;;;6.80;99.90;;;;;;5042290;28;20029;-81
2022/11/21 03:36:37;;;;;;;0.63;0.63;;;6.80;99.90;;;;;;5049183;28;20025;-81
2022/11/21 03:39:03;;;;;;;0.10;0.10;;;6.80;99.90;;;;;;5032267;28;20508;-81
2022/11/21 03:41:28;;;;;;;0.10;0.10;;;6.70;99.90;;;;;;5050234;28;20648;-82
2022/11/21 03:44:06;;;;;;;0.32;0.32;;;6.70;99.90;;;;;;5041681;28;20035;-83
2022/11/21 03:46:37;;;;;;;0.10;0.10;;;6.60;99.90;;;;;;5031223;28;20033;-81
2022/11/21 03:49:03;;;;;;;0.20;0.20;;;6.60;99.90;;;;;;5052081;28;20029;-81
2022/11/21 03:51:29;;;;;;;0.70;0.70;;;6.50;99.90;;;;;;5050120;28;20029;-81
2022/11/21 03:53:55;;;;;;;13.88;0.63;;;6.50;99.90;;;;;;5049647;28;20024;-82
2022/11/21 03:56:21;;;;;;;0.55;0.35;;;6.50;99.90;;;;;;5052906;28;20504;-81
2022/11/21 03:58:46;;;;;;;0.20;0.20;;;6.40;99.90;;;;;;5032162;28;20025;-82
2022/11/21 04:01:12;;;;;;;0.13;0.13;;;6.40;99.90;;;;;;5048837;28;20938;-83
2022/11/21 04:03:39;;;;;;;1.13;1.08;;;6.30;99.90;;;;;;5045669;28;20068;-82
2022/11/21 04:06:05;;;;;;;0.43;0.43;;;6.40;99.90;;;;;;5052051;28;20472;-82
2022/11/21 04:08:31;;;;;;;0.10;0.10;;;6.30;99.90;;;;;;5049681;28;20103;-83
2022/11/21 04:10:57;;;;;;;0.90;0.90;;;6.30;99.90;;;;;;5052061;28;20033;-83
2022/11/21 04:13:23;;;;;;;0.22;0.22;;;6.20;99.90;;;;;;5048478;28;20035;-82
2022/11/21 04:15:49;;;;;;;2.13;1.48;;;6.20;99.90;;;;;;5048215;28;20037;-82
2022/11/21 04:18:14;;;;;;;0.43;0.40;;;6.20;99.90;;;;;;5050842;28;20036;-81
2022/11/21 04:20:40;;;;;;;0.10;0.10;;;6.20;99.90;;;;;;5027138;28;20083;-80
2022/11/21 04:23:06;;;;;;;0.20;0.20;;;6.20;99.90;;;;;;5052504;28;20025;-83
2022/11/21 04:25:32;;;;;;;0.25;0.25;;;6.20;99.90;;;;;;5048439;28;20037;-81
2022/11/21 04:28:02;;;;;;;0.05;0.05;;;6.10;99.90;;;;;;5049266;28;20435;-80
2022/11/21 04:30:28;;;;;;;0.55;0.55;;;6.20;99.90;;;;;;5052019;28;20036;-81
2022/11/21 04:32:55;;;;;;;0.10;0.10;;;6.20;99.90;;;;;;5031777;28;20036;-81
2022/11/21 04:35:21;;;;;;;0.10;0.10;;;6.30;99.90;;;;;;5048325;28;20029;-81
2022/11/21 04:37:47;;;;;;;0.20;0.20;;;6.30;99.90;;;;;;5048575;28;20072;-81
2022/11/21 04:40:14;;;;;;;0.20;0.20;;;6.20;99.90;;;;;;5030157;28;20099;-81
2022/11/21 04:42:43;;;;;;;0.10;0.10;;;6.30;99.90;;;;;;5049813;28;20040;-80
2022/11/21 04:45:09;;;;;;;0.10;0.10;;;6.30;99.90;;;;;;5048031;28;20028;-80
2022/11/21 04:47:36;;;;;;;0.35;0.35;;;6.30;99.90;;;;;;5049877;28;20166;-80
2022/11/21 04:50:03;;;;;;;0.10;0.10;;;6.30;99.90;;;;;;5027741;28;20044;-81
2022/11/21 04:52:29;;;;;;;0.93;0.85;;;6.50;99.90;;;;;;5029956;28;20039;-80
2022/11/21 04:54:55;;;;;;;8.00;0.63;;;6.50;99.90;;;;;;5047310;28;20053;-80
2022/11/21 04:57:20;;;;;;;0.10;0.10;;;6.50;99.90;;;;;;5047242;28;20056;-80
2022/11/21 04:59:46;;;;;;;4.13;1.20;;;6.40;99.90;;;;;;5049919;28;20037;-80
2022/11/21 05:02:12;;;;;;;0.30;0.30;;;6.50;99.90;;;;;;5047199;28;20029;-80
2022/11/21 05:04:38;;;;;;;0.10;0.10;;;6.50;99.90;;;;;;5047435;28;20841;-80
2022/11/21 05:07:03;;;;;;;0.10;0.10;;;6.60;99.90;;;;;;5047478;28;20037;-80
2022/11/21 05:09:29;;;;;;;0.20;0.20;;;6.50;99.90;;;;;;5047280;28;20663;-81
2022/11/21 05:14:39;;;;;;;0.43;0.20;;;6.60;99.90;;;;;;5048960;28;20055;-80
2022/11/21 05:17:05;;;;;;;0.82;0.50;;;6.60;99.90;;;;;;5028577;28;20537;-80
2022/11/21 05:19:30;;;;;;;0.10;0.10;;;6.50;99.90;;;;;;5046745;28;20037;-80
2022/11/21 05:21:56;;;;;;;0.30;0.30;;;6.50;99.90;;;;;;5049773;28;20594;-80
2022/11/21 05:24:22;;;;;;;0.80;0.70;;;6.50;99.90;;;;;;5029141;28;20036;-81
2022/11/21 05:26:47;;;;;;;1.85;0.90;;;6.40;99.90;;;;;;5049881;28;20032;-80
2022/11/21 05:29:13;;;;;;;0.20;0.20;;;6.40;99.90;;;;;;5047382;28;20036;-81
2022/11/21 05:31:39;;;;;;;0.20;0.20;;;6.40;99.90;;;;;;5029220;28;20071;-81
2022/11/21 05:34:04;;;;;;;0.40;0.40;;;6.40;99.90;;;;;;5048710;28;20129;-80
2022/11/21 05:36:30;;;;;;;0.25;0.25;;;6.40;99.90;;;;;;5048076;28;20025;-80
2022/11/21 05:38:56;;;;;;;0.47;0.30;;;6.50;99.90;;;;;;5048131;28;20029;-79
2022/11/21 05:41:22;;;;;;;1.38;0.30;;;6.50;99.90;;;;;;5047961;28;20064;-79
2022/11/21 05:43:48;;;;;;;20.67;1.73;;;6.40;99.90;;;;;;5030707;28;20028;-79
2022/11/21 05:46:21;;;;;;;0.57;0.57;;;6.50;99.90;;;;;;5047965;28;20526;-80
2022/11/21 05:48:48;;;;;;;0.40;0.40;;;6.50;99.90;;;;;;5048129;28;20056;-79
2022/11/21 05:51:16;;;;;;;1.65;0.90;;;6.60;99.90;;;;;;5048867;28;20028;-78
2022/11/21 05:53:44;;;;;;;1.15;1.02;;;6.60;99.90;;;;;;5047233;28;20037;-79
2022/11/21 05:56:15;;;;;;;16.67;0.73;;;6.70;99.90;;;;;;5047629;28;20467;-84
2022/11/21 05:58:41;;;;;;;0.13;0.13;;;6.60;99.90;;;;;;5030806;28;20033;-84
2022/11/21 06:01:09;;;;;;;0.20;0.20;;;6.70;99.90;;;;;;5031063;28;20025;-82
2022/11/21 06:03:37;;;;;;;0.15;0.15;;;6.60;99.90;;;;;;5030899;28;20552;-82
2022/11/21 06:06:10;;;;;;;0.43;0.43;;;6.60;99.90;;;;;;5053955;28;20029;-83
2022/11/21 06:08:39;;;;;;;0.10;0.10;;;6.60;99.90;;;;;;5033714;28;20031;-81
2022/11/21 06:11:06;;;;;;;1.13;0.75;;;6.60;99.90;;;;;;5049472;28;20031;-80
2022/11/21 06:13:32;;;;;;;0.40;0.40;;;6.70;99.90;;;;;;5042795;28;20086;-81
2022/11/21 06:15:58;;;;;;;2.83;1.33;;;6.80;99.90;;;;;;5048462;28;20461;-79
2022/11/21 06:18:24;;;;;;;0.10;0.10;;;6.80;99.90;;;;;;5050229;28;20116;-78
2022/11/21 06:20:50;;;;;;;0.10;0.10;;;6.70;99.90;;;;;;5046992;28;20036;-76
2022/11/21 06:23:16;;;;;;;1.23;0.90;;;6.60;99.90;;;;;;5029664;28;20029;-78
2022/11/21 06:25:43;;;;;;;0.10;0.10;;;6.70;99.90;;;;;;5047331;28;20492;-78
2022/11/21 06:28:09;;;;;;;0.65;0.65;;;6.70;99.90;;;;;;5053125;28;20055;-78
2022/11/21 06:30:34;;;;;;;0.22;0.22;;;6.70;99.90;;;;;;5028987;28;20033;-78
2022/11/21 06:33:04;;;;;;;1.75;0.68;;;6.70;99.90;;;;;;5049763;28;20540;-78
2022/11/21 06:35:31;;;;;;;0.10;0.10;;;6.80;99.90;;;;;;5030000;28;20036;-79
2022/11/21 06:37:57;;;;;;;0.10;0.10;;;6.70;99.90;;;;;;5028734;28;20551;-80
2022/11/21 06:40:23;;;;;;;0.10;0.10;;;6.70;99.90;;;;;;5045986;28;20033;-79
2022/11/21 06:42:49;;;;;;;0.63;0.63;;;6.70;99.90;;;;;;5028729;28;20048;-79
2022/11/21 06:45:14;;;;;;;0.10;0.10;;;6.70;99.90;;;;;;5046778;28;20800;-78
2022/11/21 06:47:40;;;;;;;0.40;0.40;;;6.60;99.90;;;;;;5053909;28;20113;-78
2022/11/21 06:50:06;;;;;;;0.82;0.82;;;6.80;99.90;;;;;;5053587;28;20024;-79
2022/11/21 06:52:33;;;;;;;0.10;0.10;;;6.60;99.90;;;;;;5035249;28;20021;-80
2022/11/21 06:54:58;;;;;;;0.10;0.10;;;6.70;99.90;;;;;;5050200;28;20374;-80
2022/11/21 06:57:24;;;;;;;0.10;0.10;;;6.70;99.90;;;;;;5051531;28;20582;-80
2022/11/21 06:59:50;;;;;;;29.05;1.02;;;6.80;99.90;;;;;;5047081;28;20052;-79
2022/11/21 07:02:15;;;;;;;0.28;0.28;;;6.70;99.90;;;;;;5030313;28;20029;-79
2022/11/21 07:04:41;;;;;;;0.30;0.30;;;6.70;99.90;;;;;;5045292;28;20032;-80
2022/11/21 07:07:07;;;;;;;0.20;0.20;;;6.80;99.90;;;;;;5049303;28;20819;-80
2022/11/21 07:09:35;;;;;;;7.47;0.95;;;6.80;99.90;;;;;;5044595;28;20127;-81
2022/11/21 07:14:46;;;;;;;0.40;0.40;;;6.80;99.90;;;;;;5047192;28;20025;-79
2022/11/21 07:17:13;;;;;;;0.10;0.10;;;6.90;99.90;;;;;;5047626;28;20029;-80
2022/11/21 07:19:39;;;;;;;0.10;0.10;;;6.80;99.90;;;;;;5049259;28;20075;-79
2022/11/21 07:22:06;;;;;;;0.32;0.32;;;6.80;99.90;;;;;;5049233;28;20037;-79
2022/11/21 07:24:31;;;;;;;1.35;0.63;;;6.90;99.90;;;;;;5046172;28;20029;-81
2022/11/21 07:26:57;;;;;;;0.98;0.63;;;7.00;99.90;;;;;;5041140;28;20063;-81
2022/11/21 07:29:23;;;;;;;0.30;0.30;;;7.00;99.90;;;;;;5049985;28;20025;-82
2022/11/21 07:31:48;;;;;;;15.98;0.70;;;7.00;99.90;;;;;;5030115;28;20508;-83
2022/11/21 07:34:14;;;;;;;0.10;0.10;;;7.00;99.90;;;;;;5029464;28;20059;-83
2022/11/21 07:36:40;;;;;;;0.75;0.75;;;6.90;99.90;;;;;;5053630;28;20033;-84
2022/11/21 07:39:05;;;;;;;0.10;0.10;;;6.90;99.90;;;;;;5032278;28;20037;-84
2022/11/21 07:41:31;;;;;;;15.30;0.88;;;6.90;99.90;;;;;;5046673;28;20154;-86
2022/11/21 07:43:57;;;;;;;0.43;0.43;;;6.80;99.90;;;;;;5049106;28;20057;-84
2022/11/21 07:46:23;;;;;;;0.20;0.20;;;6.80;99.90;;;;;;5049312;28;20122;-82
2022/11/21 07:48:49;;;;;;;0.93;0.73;;;6.80;99.90;;;;;;5032001;28;20043;-86
2022/11/21 07:51:15;;;;;;;0.13;0.13;;;6.70;99.90;;;;;;5031359;28;20021;-86
2022/11/21 07:53:41;;;;;;;0.40;0.40;;;6.70;99.90;;;;;;5050240;28;20103;-84
2022/11/21 07:56:08;;;;;;;0.43;0.43;;;6.80;99.90;;;;;;5050033;28;20045;-82
2022/11/21 07:58:34;;;;;;;0.30;0.30;;;6.60;99.90;;;;;;5033969;28;20127;-91
2022/11/21 08:01:06;;;;;;;0.40;0.40;;;6.50;99.90;;;;;;5033165;28;20187;-90
2022/11/21 08:03:32;;;;;;;0.32;0.32;;;6.60;99.90;;;;;;5032090;28;20025;-86
2022/11/21 08:06:02;;;;;;;2.33;0.38;;;6.40;99.90;;;;;;5049373;28;20799;-86
2022/11/21 08:08:28;;;;;;;0.05;0.05;;;6.20;99.90;;;;;;5032049;28;20033;-87
2022/11/21 08:10:54;;;;;;;0.20;0.20;;;6.20;99.90;;;;;;5050940;28;20078;-87
2022/11/21 08:13:19;;;;;;;0.10;0.10;;;6.10;99.90;;;;;;5030949;28;20803;-87
2022/11/21 08:15:45;;;;;;;0.20;0.20;;;6.30;99.90;;;;;;5044083;28;20033;-86
2022/11/21 08:18:17;;;;;;;0.50;0.50;;;6.30;99.90;;;;;;5046500;28;20094;-87
2022/11/21 08:20:43;;;;;;;0.13;0.13;;;6.10;99.90;;;;;;5042125;28;20029;-87
2022/11/21 08:23:10;;;;;;;14.70;1.25;;;6.00;99.90;;;;;;5049510;28;20036;-87
2022/11/21 08:25:40;;;;;;;0.70;0.70;;;6.00;99.90;;;;;;5048620;28;20140;-87
2022/11/21 08:28:07;;;;;;;0.10;0.10;;;6.00;99.90;;;;;;5048944;28;20033;-87
2022/11/21 08:30:34;;;;;;;0.30;0.30;;;6.10;99.90;;;;;;5031066;28;20028;-87
2022/11/21 08:33:00;;;;;;;0.10;0.10;;;6.00;99.90;;;;;;5031083;28;20094;-87
2022/11/21 08:35:26;;;;;;;0.90;0.90;;;6.10;99.90;;;;;;5031443;28;20032;-88
2022/11/21 08:37:56;;;;;;;0.30;0.30;;;6.30;99.90;;;;;;5033182;28;20032;-89
2022/11/21 08:40:23;;;;;;;0.20;0.20;;;6.10;99.90;;;;;;5034309;28;20063;-90
2022/11/21 08:43:05;;;;;;;0.10;0.10;;;6.20;99.90;;;;;;5054696;28;20102;-89
2022/11/21 08:45:32;;;;;;;0.17;0.17;;;6.20;99.90;;;;;;5033862;28;20040;-88
2022/11/21 08:47:58;;;;;;;;;;;6.20;99.90;;;;;;5030660;28;20124;-87
2022/11/21 08:50:25;;;;;;;0.93;0.93;;;6.10;99.90;;;;;;5030275;28;20031;-88
2022/11/21 08:52:50;;;;;;;0.00;0.00;;;5.90;99.90;;;;;;5030136;28;20962;-86
2022/11/21 08:55:16;;;;;;;0.15;0.15;;;6.10;99.90;;;;;;5047758;28;20045;-87
2022/11/21 08:57:42;;;;;;;0.10;0.10;;;6.10;99.90;;;;;;5048281;28;20036;-86
2022/11/21 09:00:11;;;;;;;0.10;0.10;;;6.10;99.90;;;;;;5029312;28;20036;-85
2022/11/21 09:02:37;;;;;;;0.10;0.10;;;6.30;99.90;;;;;;5029693;28;20036;-84
2022/11/21 09:05:04;;;;;;;0.10;0.10;;;6.20;99.90;;;;;;5048424;28;20055;-84
2022/11/21 09:07:30;;;;;;;0.10;0.10;;;6.30;99.90;;;;;;5048197;28;20029;-84
2022/11/21 09:09:55;;;;;;;0.10;0.10;;;6.30;99.90;;;;;;5047969;28;20024;-84
2022/11/21 09:12:21;;;;;;;0.10;0.10;;;6.40;99.90;;;;;;5056500;28;20686;-84
2022/11/21 09:20:15;;;;;;;0.10;0.10;;;6.50;99.90;;;;;;5047370;28;20086;-85
2022/11/21 09:22:41;;;;;;;0.10;0.10;;;6.40;99.90;;;;;;5047758;28;20037;-84
2022/11/21 09:25:07;;;;;;;1.27;1.17;;;6.50;99.90;;;;;;5027524;28;20036;-84
2022/11/21 09:27:32;;;;;;;0.10;0.10;;;6.50;99.90;;;;;;5045746;28;20040;-85
2022/11/21 09:29:58;;;;;;;0.32;0.32;;;6.30;99.90;;;;;;5029656;28;20029;-84
2022/11/21 09:32:24;;;;;;;0.17;0.17;;;6.30;99.90;;;;;;5046080;28;20945;-85
2022/11/21 09:34:49;;;;;;;0.30;0.30;;;6.40;99.90;;;;;;5048262;28;20037;-86
2022/11/21 09:37:15;;;;;;;0.10;0.10;;;6.30;99.90;;;;;;5048081;28;20032;-86
2022/11/21 09:39:41;;;;;;;0.63;0.63;;;6.30;99.90;;;;;;5029002;28;20037;-87
2022/11/21 09:42:06;;;;;;;0.10;0.10;;;6.50;99.90;;;;;;5045673;28;20024;-87
2022/11/21 09:44:59;;;;;;;0.10;0.10;;;6.40;99.90;;;;;;5029117;28;20139;-86
2022/11/21 09:47:31;;;;;;;5.93;1.55;;;6.20;99.90;;;;;;5053196;28;20447;-86
2022/11/21 09:50:01;;;;;;;1.05;0.38;;;6.20;99.90;;;;;;5028970;28;20086;-86
2022/11/21 09:52:35;;;;;;;2.38;0.55;;;6.30;99.90;;;;;;5047053;28;20028;-85
2022/11/21 09:55:06;;;;;;;0.20;0.20;;;6.30;99.90;;;;;;5029430;28;20160;-85
2022/11/21 09:57:34;;;;;;;0.30;0.30;;;6.40;99.90;;;;;;5029149;28;20087;-87
2022/11/21 10:00:11;;;;;;;0.30;0.30;;;6.40;99.90;;;;;;5029230;28;20045;-87
2022/11/21 10:02:38;;;;;;;0.10;0.10;;;6.30;99.90;;;;;;5028942;28;20029;-86
2022/11/21 10:05:12;;;;;;;0.20;0.20;;;6.30;99.90;;;;;;5028722;28;20033;-85
2022/11/21 10:07:38;;;;;;;0.82;0.82;;;6.30;99.90;;;;;;5047048;28;20104;-87
2022/11/21 10:10:26;;;;;;;0.37;0.37;;;6.20;99.90;;;;;;5046769;28;20063;-86
2022/11/21 10:13:14;;;;;;;0.17;0.17;;;6.30;99.90;;;;;;5047134;28;20029;-86
2022/11/21 10:15:57;;;;;;;0.50;0.50;;;6.30;99.90;;;;;;5041088;28;20025;-86
2022/11/21 10:18:53;;;;;;;0.13;0.13;;;6.30;99.90;;;;;;5047142;28;20412;-86
2022/11/21 10:21:30;;;;;;;0.10;0.10;;;6.30;99.90;;;;;;5046751;28;20499;-86
2022/11/21 10:24:20;;;;;;;1.65;1.35;;;6.30;99.90;;;;;;5029139;28;20064;-86
2022/11/21 10:26:51;;;;;;;0.60;0.57;;;6.50;99.90;;;;;;5040633;28;20066;-87
2022/11/21 10:29:40;;;;;;;0.10;0.10;;;6.60;99.90;;;;;;5051475;28;20159;-86
2022/11/21 10:32:21;;;;;;;0.55;0.55;;;6.60;99.90;;;;;;5029256;28;20546;-85
2022/11/21 10:34:50;;;;;;;0.10;0.10;;;6.50;99.90;;;;;;5028983;28;20040;-87
2022/11/21 10:37:25;;;;;;;0.10;0.10;;;6.70;99.90;;;;;;5028218;28;20068;-87
2022/11/21 10:39:53;;;;;;;0.52;0.52;;;6.70;99.90;;;;;;5048985;28;20043;-86
2022/11/21 10:42:28;;;;;;;0.10;0.10;;;6.90;99.90;;;;;;5050790;28;20029;-86
2022/11/21 10:47:38;;;;;;;0.10;0.10;;;7.00;99.90;;;;;;5050020;28;20036;-87
2022/11/21 10:50:42;;;;;;;0.15;0.15;;;7.00;99.90;;;;;;5033225;28;20032;-87
2022/11/21 10:56:07;;;;;;;0.10;0.10;;;7.00;99.90;;;;;;5042826;28;20075;-87
2022/11/21 10:58:45;;;;;;;0.10;0.10;;;7.00;99.90;;;;;;5050390;28;20492;-86
2022/11/21 11:01:27;;;;;;;0.10;0.10;;;7.10;99.90;;;;;;5049754;28;20033;-87
2022/11/21 11:04:08;;;;;;;0.30;0.30;;;7.00;99.90;;;;;;5049934;28;20041;-87
2022/11/21 11:06:34;;;;;;;0.10;0.10;;;7.10;99.90;;;;;;5044189;28;20166;-87
2022/11/21 11:09:00;;;;;;;0.38;0.38;;;7.10;99.90;;;;;;5048812;28;20134;-87
2022/11/21 11:11:26;;;;;;;0.93;0.50;;;7.00;99.90;;;;;;5032702;28;20100;-87
2022/11/21 11:14:01;;;;;;;0.20;0.20;;;7.10;99.90;;;;;;5032963;28;20033;-88
2022/11/21 11:16:28;;;;;;;0.47;0.47;;;7.10;99.90;;;;;;5032018;28;20029;-87
2022/11/21 11:18:59;;;;;;;0.38;0.38;;;7.00;99.90;;;;;;5031997;28;20037;-86
2022/11/21 11:21:40;;;;;;;1.75;0.90;;;7.00;99.90;;;;;;5031894;28;20025;-85
2022/11/21 11:24:23;;;;;;;0.10;0.10;;;6.90;99.90;;;;;;5050160;28;20047;-86
2022/11/21 11:26:50;;;;;;;1.00;0.85;;;7.00;99.90;;;;;;5030753;28;20033;-86
2022/11/21 11:29:20;;;;;;;;;;;7.00;99.90;;;;;;5031934;28;20025;-86
2022/11/21 11:32:16;;;;;;;0.10;0.10;;;7.10;99.90;;;;;;5049745;28;19919;-86
2022/11/21 11:34:58;;;;;;;4.78;0.85;;;7.10;99.90;;;;;;5049536;28;20496;-88
2022/11/21 11:37:44;;;;;;;0.10;0.10;;;7.10;99.90;;;;;;5031328;28;20591;-86
2022/11/21 11:40:22;;;;;;;0.20;0.20;;;7.00;99.90;;;;;;5030436;28;20067;-86
2022/11/21 11:48:48;;;;;;;3.92;2.17;;;7.10;99.90;;;;;;5049052;28;20051;-87
2022/11/21 11:51:38;;;;;;;1.60;0.65;;;7.10;99.90;;;;;;5043138;28;20428;-85
2022/11/21 11:54:18;;;;;;;0.10;0.10;;;7.20;99.90;;;;;;5034629;28;20033;-89
2022/11/21 11:56:45;;;;;;;0.35;0.35;;;7.30;99.90;;;;;;5049970;28;20077;-89
2022/11/21 11:59:36;;;;;;;0.20;0.20;;;7.20;99.90;;;;;;5043219;28;20025;-87
2022/11/21 12:02:11;;;;;;;0.30;0.30;;;7.10;99.90;;;;;;5049953;28;20122;-88
2022/11/21 12:04:46;;;;;;;0.20;0.20;;;7.10;99.90;;;;;;5047404;28;20036;-88
2022/11/21 12:07:27;;;;;;;0.10;0.10;;;7.20;99.90;;;;;;5031490;28;20036;-87
2022/11/21 12:10:12;;;;;;;0.10;0.10;;;7.20;99.90;;;;;;5049606;28;20028;-87
2022/11/21 12:12:41;;;;;;;0.10;0.10;;;7.30;99.90;;;;;;5047013;28;20021;-87
2022/11/21 12:18:18;;;;;;;0.10;0.10;;;7.40;99.90;;;;;;5046696;28;20206;-86
2022/11/21 12:20:53;;;;;;;0.25;0.25;;;7.40;99.90;;;;;;5052134;28;20029;-87
2022/11/21 12:23:19;;;;;;;0.20;0.20;;;7.50;99.90;;;;;;5051786;28;20825;-91
2022/11/21 12:26:15;;;;;;;0.30;0.30;;;7.60;99.90;;;;;;5031749;28;20119;-85
2022/11/21 12:29:03;;;;;;;0.88;0.80;;;7.60;99.90;;;;;;4999962;28;20093;-88
2022/11/21 12:31:51;;;;;;;0.65;0.65;;;7.70;99.90;;;;;;5052961;28;20073;-89
2022/11/21 12:34:38;;;;;;;0.10;0.10;;;7.90;99.90;;;;;;5030982;28;20021;-86
2022/11/21 12:37:27;;;;;;;1.17;0.52;;;7.90;99.90;;;;;;5031637;28;20059;-86
2022/11/21 12:40:07;;;;;;;0.70;0.55;;;8.10;99.90;;;;;;5059663;28;20032;-87
2022/11/21 12:42:52;;;;;;;0.52;0.50;;;8.10;99.90;;;;;;5044931;28;20032;-85
2022/11/21 12:45:33;;;;;;;0.82;0.82;;;7.90;99.90;;;;;;5042156;28;20028;-87
2022/11/21 12:54:54;;;;;;;0.10;0.10;;;8.00;99.90;;;;;;5048537;28;20043;-88
2022/11/21 12:57:27;;;;;;;0.88;0.73;;;8.00;99.90;;;;;;5047381;28;20037;-85
2022/11/21 13:00:20;;;;;;;0.15;0.15;;;8.00;99.90;;;;;;5030226;28;20116;-86
2022/11/21 13:03:36;;;;;;;0.43;0.43;;;8.00;99.90;;;;;;5047899;28;20033;-87
2022/11/21 13:06:04;;;;;;;0.10;0.10;;;8.10;99.90;;;;;;5046377;28;20033;-88
2022/11/21 13:08:36;;;;;;;0.20;0.20;;;8.20;99.90;;;;;;5049642;28;20825;-92
2022/11/21 13:14:18;;;;;;;1.33;0.35;;;8.30;99.90;;;;;;5041043;28;20124;-86
2022/11/21 13:16:51;;;;;;;0.10;0.10;;;8.30;99.90;;;;;;5030339;28;20059;-87
2022/11/21 13:19:20;;;;;;;0.25;0.25;;;8.30;99.90;;;;;;5045871;28;20033;-85
2022/11/21 13:21:48;;;;;;;0.10;0.10;;;8.30;99.90;;;;;;5046373;28;20029;-84
2022/11/21 13:24:46;;;;;;;0.40;0.40;;;8.40;99.90;;;;;;5047534;28;20045;-86
2022/11/21 13:27:37;;;;;;;0.10;0.10;;;8.30;99.90;;;;;;5047796;28;20110;-83
2022/11/21 13:30:06;;;;;;;6.28;3.10;;;8.30;99.90;;;;;;5030303;28;20029;-84
2022/11/21 13:32:52;;;;;;;0.13;0.13;;;8.20;99.90;;;;;;5029893;28;20078;-86
2022/11/21 13:35:20;;;;;;;0.10;0.10;;;8.30;99.90;;;;;;5046626;28;20087;-87
2022/11/21 13:37:48;;;;;;;0.10;0.10;;;8.30;99.90;;;;;;5048492;28;20056;-85
2022/11/21 13:40:29;;;;;;;0.20;0.20;;;8.20;99.90;;;;;;5040784;28;20033;-86
2022/11/21 13:43:18;;;;;;;1.65;1.30;;;8.30;99.90;;;;;;5023069;28;20037;-87
2022/11/21 13:45:51;;;;;;;0.20;0.20;;;8.40;99.90;;;;;;5039419;28;20041;-89
2022/11/21 13:48:44;;;;;;;6.60;1.48;;;8.40;99.90;;;;;;5047061;28;20017;-89